createdAt,value
2023-05-13T00:01:13.070Z,90.7
2023-05-13T00:02:29.372Z,90.9
2023-05-13T00:03:45.661Z,90.9
2023-05-13T00:05:01.950Z,90.9
2023-05-13T00:06:18.243Z,91.1
2023-05-13T00:07:34.540Z,91.3
2023-05-13T00:08:50.827Z,90.9
2023-05-13T00:10:07.141Z,91
2023-05-13T00:11:22.437Z,90.6
2023-05-13T00:12:38.690Z,90.7
2023-05-13T00:13:54.922Z,91.3
2023-05-13T00:15:11.218Z,91.7
2023-05-13T00:16:27.520Z,91.8
2023-05-13T00:17:43.799Z,92.2
2023-05-13T00:19:00.104Z,92.3
2023-05-13T00:20:16.390Z,92
2023-05-13T00:21:32.692Z,91.7
2023-05-13T00:22:48.973Z,91.8
2023-05-13T00:24:05.280Z,92
2023-05-13T00:25:21.580Z,91.8
2023-05-13T00:26:37.863Z,91.9
2023-05-13T00:27:53.176Z,92.1
2023-05-13T00:29:09.469Z,92.3
2023-05-13T00:30:25.760Z,92.3
2023-05-13T00:31:42.060Z,91.6
2023-05-13T00:32:58.351Z,91.1
2023-05-13T00:34:14.637Z,91.2
2023-05-13T00:35:30.939Z,91.3
2023-05-13T00:36:47.242Z,92.2
2023-05-13T00:38:03.541Z,92.4
2023-05-13T00:39:19.825Z,92.7
2023-05-13T00:40:36.126Z,93
2023-05-13T00:41:52.420Z,93.3
2023-05-13T00:43:08.699Z,93.3
2023-05-13T00:44:24.016Z,93
2023-05-13T00:45:40.317Z,92.5
2023-05-13T00:46:56.601Z,92.6
2023-05-13T00:48:12.910Z,92.9
2023-05-13T00:49:29.203Z,93.2
2023-05-13T00:50:45.493Z,93.2
2023-05-13T00:52:01.780Z,93.3
2023-05-13T00:53:18.082Z,93.4
2023-05-13T00:54:34.381Z,93.3
2023-05-13T00:55:50.673Z,93.2
2023-05-13T00:57:06.965Z,93.4
2023-05-13T00:58:23.251Z,93.4
2023-05-13T00:59:39.553Z,93.7
2023-05-13T01:00:54.864Z,93.8
2023-05-13T01:02:11.164Z,94
2023-05-13T01:03:27.466Z,94
2023-05-13T01:04:43.754Z,94.2
2023-05-13T01:06:00.046Z,94.3
2023-05-13T01:07:16.334Z,94.3
2023-05-13T01:09:48.920Z,94.2
2023-05-13T01:11:05.233Z,94.3
2023-05-13T01:12:21.515Z,94.4
2023-05-13T01:13:37.813Z,94.5
2023-05-13T01:14:54.113Z,94
2023-05-13T01:16:10.391Z,94.2
2023-05-13T01:17:25.705Z,94.2
2023-05-13T01:18:42.001Z,94.4
2023-05-13T01:19:58.301Z,94
2023-05-13T01:21:14.602Z,94
2023-05-13T01:22:30.887Z,93.6
2023-05-13T01:23:47.175Z,93.6
2023-05-13T01:25:03.484Z,94
2023-05-13T01:26:19.772Z,94.4
2023-05-13T01:27:36.072Z,94.4
2023-05-13T01:28:52.370Z,94.3
2023-05-13T01:30:08.663Z,94.8
2023-05-13T01:31:24.945Z,95.1
2023-05-13T01:32:41.252Z,94.9
2023-05-13T01:33:56.561Z,95.2
2023-05-13T01:35:12.798Z,95.3
2023-05-13T01:36:29.059Z,95.1
2023-05-13T01:37:45.324Z,95
2023-05-13T01:39:01.630Z,95.1
2023-05-13T01:40:17.932Z,94.7
2023-05-13T01:41:34.230Z,94.7
2023-05-13T01:42:50.520Z,94.6
2023-05-13T01:44:06.796Z,94.4
2023-05-13T01:45:23.099Z,94.4
2023-05-13T01:46:39.396Z,94.6
2023-05-13T01:47:55.708Z,94.7
2023-05-13T01:49:11.987Z,94.5
2023-05-13T01:50:27.286Z,94.6
2023-05-13T01:51:43.594Z,94.2
2023-05-13T01:52:59.898Z,94
2023-05-13T01:54:16.193Z,94
2023-05-13T01:55:32.475Z,94.3
2023-05-13T01:56:48.771Z,94.3
2023-05-13T01:58:05.066Z,94.4
2023-05-13T01:59:21.368Z,94.8
2023-05-13T02:00:37.670Z,94.7
2023-05-13T02:01:53.949Z,94.6
2023-05-13T02:03:10.251Z,94.6
2023-05-13T02:04:26.536Z,94.8
2023-05-13T02:05:42.834Z,94.8
2023-05-13T02:06:58.129Z,94.7
2023-05-13T02:08:14.428Z,94.7
2023-05-13T02:09:30.713Z,94.7
2023-05-13T02:10:47.014Z,94.9
2023-05-13T02:12:03.305Z,94.8
2023-05-13T02:13:19.601Z,94.8
2023-05-13T02:14:35.903Z,95
2023-05-13T02:15:52.181Z,95.1
2023-05-13T02:17:08.487Z,95.2
2023-05-13T02:18:24.786Z,95.4
2023-05-13T02:19:41.084Z,95.1
2023-05-13T02:20:57.370Z,95.2
2023-05-13T02:22:13.667Z,95.2
2023-05-13T02:23:28.982Z,95.1
2023-05-13T02:24:45.275Z,94.8
2023-05-13T02:26:01.565Z,95.2
2023-05-13T02:27:17.868Z,95.3
2023-05-13T02:28:34.160Z,95.1
2023-05-13T02:29:50.446Z,95
2023-05-13T02:31:06.746Z,95
2023-05-13T02:32:23.029Z,94.8
2023-05-13T02:33:39.328Z,94.8
2023-05-13T02:34:55.628Z,94.8
2023-05-13T02:36:11.923Z,94.7
2023-05-13T02:37:28.224Z,94.8
2023-05-13T02:38:44.508Z,95.1
2023-05-13T02:39:59.810Z,95
2023-05-13T02:41:16.113Z,94.7
2023-05-13T02:42:32.415Z,94.8
2023-05-13T02:43:48.696Z,95
2023-05-13T02:45:05.007Z,95.1
2023-05-13T02:46:21.286Z,95.1
2023-05-13T02:47:36.599Z,95
2023-05-13T02:48:52.907Z,95.1
2023-05-13T02:50:09.134Z,95
2023-05-13T02:51:25.452Z,95
2023-05-13T02:52:41.734Z,95.1
2023-05-13T02:53:57.984Z,95.1
2023-05-13T02:55:14.229Z,95
2023-05-13T02:56:30.521Z,95.1
2023-05-13T02:57:46.810Z,95.1
2023-05-13T02:59:03.107Z,95.4
2023-05-13T03:00:19.399Z,95.5
2023-05-13T03:01:35.703Z,95.6
2023-05-13T03:02:51.999Z,95.5
2023-05-13T03:04:07.294Z,95.5
2023-05-13T03:05:23.545Z,95.5
2023-05-13T03:06:39.797Z,95.5
2023-05-13T03:07:56.049Z,95.6
2023-05-13T03:09:12.275Z,95.5
2023-05-13T03:10:28.512Z,95.4
2023-05-13T03:11:44.748Z,95.5
2023-05-13T03:13:00.990Z,95.5
2023-05-13T03:14:17.234Z,95.6
2023-05-13T03:15:33.483Z,95.6
2023-05-13T03:16:49.722Z,95.6
2023-05-13T03:18:05.956Z,95.7
2023-05-13T03:19:22.194Z,95.6
2023-05-13T03:20:37.459Z,95.8
2023-05-13T03:21:53.690Z,95.7
2023-05-13T03:23:09.949Z,95.6
2023-05-13T03:24:26.188Z,95.7
2023-05-13T03:25:42.421Z,95.7
2023-05-13T03:26:58.664Z,95.8
2023-05-13T03:28:14.899Z,95.7
2023-05-13T03:29:31.150Z,95.9
2023-05-13T03:30:47.385Z,95.9
2023-05-13T03:32:03.640Z,95.8
2023-05-13T03:33:19.860Z,95.8
2023-05-13T03:34:36.111Z,95.9
2023-05-13T03:35:52.341Z,96
2023-05-13T03:37:07.594Z,95.9
2023-05-13T03:38:23.849Z,95.9
2023-05-13T03:39:40.086Z,95.8
2023-05-13T03:40:56.313Z,95.8
2023-05-13T03:42:12.557Z,95.8
2023-05-13T03:43:28.792Z,95.8
2023-05-13T03:44:45.047Z,95.7
2023-05-13T03:46:01.285Z,95.6
2023-05-13T03:47:17.530Z,95.8
2023-05-13T03:48:33.769Z,95.8
2023-05-13T03:49:49.999Z,96
2023-05-13T03:51:06.247Z,95.9
2023-05-13T03:52:22.486Z,96.1
2023-05-13T03:53:37.741Z,96.1
2023-05-13T03:54:53.999Z,96.1
2023-05-13T03:56:10.228Z,96.1
2023-05-13T03:57:26.465Z,96.1
2023-05-13T03:58:42.703Z,96.2
2023-05-13T03:59:58.952Z,96.4
2023-05-13T04:01:15.204Z,96.5
2023-05-13T04:02:31.433Z,96.4
2023-05-13T04:03:47.665Z,96.3
2023-05-13T04:05:03.909Z,96.3
2023-05-13T04:06:20.149Z,96.2
2023-05-13T04:07:36.392Z,96.4
2023-05-13T04:08:52.628Z,96.7
2023-05-13T04:10:07.897Z,96.9
2023-05-13T04:11:24.135Z,96.9
2023-05-13T04:12:40.370Z,96.4
2023-05-13T04:13:56.612Z,96.1
2023-05-13T04:15:12.843Z,95.9
2023-05-13T04:16:29.081Z,96.2
2023-05-13T04:17:45.338Z,96.3
2023-05-13T04:19:01.573Z,96.3
2023-05-13T04:20:17.824Z,96.3
2023-05-13T04:21:34.044Z,96.4
2023-05-13T04:22:50.304Z,96.7
2023-05-13T04:24:06.522Z,96.9
2023-05-13T04:25:22.778Z,97
2023-05-13T04:26:38.024Z,97
2023-05-13T04:27:54.277Z,97.1
2023-05-13T04:29:10.512Z,97.1
2023-05-13T04:30:26.758Z,96.9
2023-05-13T04:31:42.989Z,96.9
2023-05-13T04:32:59.233Z,96.9
2023-05-13T04:34:15.469Z,97.3
2023-05-13T04:35:31.723Z,97.5
2023-05-13T04:36:47.957Z,97.5
2023-05-13T04:38:04.189Z,97.6
2023-05-13T04:39:20.433Z,97.6
2023-05-13T04:40:36.677Z,97.7
2023-05-13T04:41:52.917Z,97.8
2023-05-13T04:43:08.177Z,97.8
2023-05-13T04:44:24.402Z,97.9
2023-05-13T04:45:40.644Z,97.8
2023-05-13T04:46:56.890Z,97.8
2023-05-13T04:48:13.137Z,97.8
2023-05-13T04:49:29.367Z,97.7
2023-05-13T04:50:45.624Z,97.7
2023-05-13T04:52:01.863Z,97.7
2023-05-13T04:53:18.087Z,97.7
2023-05-13T04:54:34.352Z,97.7
2023-05-13T04:55:50.584Z,97.6
2023-05-13T04:57:06.820Z,97.6
2023-05-13T04:58:23.061Z,97.6
2023-05-13T04:59:38.306Z,97.7
2023-05-13T05:00:54.560Z,97.8
2023-05-13T05:02:10.804Z,97.7
2023-05-13T05:03:27.030Z,97.5
2023-05-13T05:04:43.286Z,97.4
2023-05-13T05:05:59.522Z,97.5
2023-05-13T05:07:15.750Z,97.5
2023-05-13T05:08:32.007Z,97.5
2023-05-13T05:09:48.244Z,97.4
2023-05-13T05:11:04.482Z,97.3
2023-05-13T05:12:20.716Z,97.3
2023-05-13T05:13:36.961Z,97.2
2023-05-13T05:14:53.200Z,97
2023-05-13T05:16:08.448Z,97
2023-05-13T05:17:24.702Z,97
2023-05-13T05:18:40.929Z,97
2023-05-13T05:19:57.183Z,97
2023-05-13T05:21:13.420Z,96.6
2023-05-13T05:22:29.660Z,96.2
2023-05-13T05:23:45.914Z,96.1
2023-05-13T05:25:02.145Z,96
2023-05-13T05:26:18.395Z,96.1
2023-05-13T05:27:34.629Z,95.7
2023-05-13T05:28:50.868Z,95.6
2023-05-13T05:30:07.093Z,95.3
2023-05-13T05:31:23.345Z,95
2023-05-13T05:32:38.616Z,94.5
2023-05-13T05:33:54.845Z,94.5
2023-05-13T05:35:11.083Z,94.6
2023-05-13T05:36:27.321Z,94.2
2023-05-13T05:37:43.564Z,94.2
2023-05-13T05:38:59.793Z,94
2023-05-13T05:40:16.053Z,94.3
2023-05-13T05:41:32.000Z,94
2023-05-13T05:42:48.534Z,93.2
2023-05-13T05:44:04.772Z,92.8
2023-05-13T05:45:21.004Z,93
2023-05-13T05:46:37.254Z,92.6
2023-05-13T05:47:53.476Z,90.8
2023-05-13T05:49:08.755Z,91.1
2023-05-13T05:50:24.975Z,91
2023-05-13T05:51:41.236Z,91.1
2023-05-13T05:52:57.456Z,91.5
2023-05-13T05:54:13.706Z,90
2023-05-13T05:55:29.952Z,88.8
2023-05-13T05:56:46.193Z,88.6
2023-05-13T05:58:02.425Z,87.7
2023-05-13T05:59:18.666Z,87.5
2023-05-13T06:00:34.914Z,87.4
2023-05-13T06:01:51.138Z,87.9
2023-05-13T06:03:07.398Z,87.4
2023-05-13T06:04:23.630Z,86
2023-05-13T06:05:38.893Z,83.3
2023-05-13T06:06:55.121Z,82.9
2023-05-13T06:08:11.376Z,83.7
2023-05-13T06:09:27.613Z,84.3
2023-05-13T06:10:43.851Z,82.8
2023-05-13T06:12:00.076Z,82.5
2023-05-13T06:13:16.330Z,82.1
2023-05-13T06:14:32.564Z,82.2
2023-05-13T06:15:48.798Z,82.5
2023-05-13T06:17:05.058Z,83
2023-05-13T06:18:21.297Z,82.4
2023-05-13T06:19:37.518Z,81.9
2023-05-13T06:20:53.758Z,82.2
2023-05-13T06:22:09.018Z,79.2
2023-05-13T06:23:25.261Z,80.5
2023-05-13T06:24:41.495Z,82.1
2023-05-13T06:25:57.751Z,81.7
2023-05-13T06:27:13.988Z,79.5
2023-05-13T06:28:30.224Z,79.8
2023-05-13T06:29:46.485Z,80.9
2023-05-13T06:31:02.704Z,81.3
2023-05-13T06:32:18.944Z,80.5
2023-05-13T06:33:35.199Z,80.1
2023-05-13T06:34:51.426Z,80.4
2023-05-13T06:36:07.660Z,80.9
2023-05-13T06:37:23.905Z,80.4
2023-05-13T06:38:39.164Z,79.1
2023-05-13T06:39:55.396Z,79.3
2023-05-13T06:41:11.644Z,77.7
2023-05-13T06:42:27.000Z,79.8
2023-05-13T06:43:44.123Z,81.3
2023-05-13T06:45:00.376Z,77
2023-05-13T06:46:16.605Z,77.5
2023-05-13T06:47:32.853Z,76.9
2023-05-13T06:48:49.086Z,77
2023-05-13T06:50:05.318Z,77.8
2023-05-13T06:51:21.568Z,77.3
2023-05-13T06:52:37.816Z,77.6
2023-05-13T06:53:54.045Z,75.7
2023-05-13T06:55:09.313Z,75.5
2023-05-13T06:56:25.553Z,72.7
2023-05-13T06:57:41.784Z,72.3
2023-05-13T06:58:58.027Z,71.8
2023-05-13T07:00:14.273Z,71.6
2023-05-13T07:01:30.498Z,71.2
2023-05-13T07:02:45.770Z,71
2023-05-13T07:04:02.007Z,71.9
2023-05-13T07:05:18.256Z,70.7
2023-05-13T07:06:34.483Z,70.5
2023-05-13T07:07:50.732Z,68.9
2023-05-13T07:09:06.976Z,70.7
2023-05-13T07:10:23.200Z,71.2
2023-05-13T07:11:39.438Z,71.3
2023-05-13T07:12:55.681Z,70.3
2023-05-13T07:14:11.933Z,71.8
2023-05-13T07:15:28.176Z,70.9
2023-05-13T07:16:44.408Z,70.9
2023-05-13T07:18:00.642Z,70.8
2023-05-13T07:19:15.912Z,72
2023-05-13T07:20:32.143Z,70.2
2023-05-13T07:21:48.392Z,68.5
2023-05-13T07:23:04.625Z,66.5
2023-05-13T07:24:20.862Z,67
2023-05-13T07:25:37.106Z,67.2
2023-05-13T07:26:53.345Z,67.1
2023-05-13T07:28:09.592Z,66.7
2023-05-13T07:29:25.823Z,65.1
2023-05-13T07:30:42.076Z,65.8
2023-05-13T07:31:58.302Z,64.9
2023-05-13T07:33:14.556Z,67.2
2023-05-13T07:34:30.797Z,64.6
2023-05-13T07:35:46.046Z,66.7
2023-05-13T07:37:02.289Z,63.9
2023-05-13T07:38:18.528Z,65.4
2023-05-13T07:39:34.767Z,66.1
2023-05-13T07:40:51.008Z,65.4
2023-05-13T07:42:07.251Z,63.4
2023-05-13T07:43:23.499Z,64.5
2023-05-13T07:44:39.730Z,64.5
2023-05-13T07:45:55.972Z,63.6
2023-05-13T07:47:12.215Z,62.2
2023-05-13T07:48:28.441Z,61.4
2023-05-13T07:49:44.688Z,61.9
2023-05-13T07:51:00.922Z,62.9
2023-05-13T07:52:16.182Z,65.3
2023-05-13T07:53:32.415Z,64.4
2023-05-13T07:54:48.661Z,61.5
2023-05-13T07:56:04.924Z,62.6
2023-05-13T07:57:21.139Z,63.6
2023-05-13T07:58:37.380Z,63.3
2023-05-13T07:59:53.628Z,64.4
2023-05-13T08:01:09.860Z,62.1
2023-05-13T08:02:26.108Z,62.3
2023-05-13T08:03:42.339Z,65.1
2023-05-13T08:04:58.583Z,63.2
2023-05-13T08:06:14.827Z,62.1
2023-05-13T08:07:31.077Z,62.1
2023-05-13T08:08:46.320Z,63
2023-05-13T08:10:02.575Z,62.8
2023-05-13T08:11:18.796Z,62.1
2023-05-13T08:12:35.037Z,61.9
2023-05-13T08:13:51.273Z,63.1
2023-05-13T08:15:07.530Z,60.8
2023-05-13T08:16:23.752Z,59.9
2023-05-13T08:17:40.011Z,58.3
2023-05-13T08:18:56.254Z,60.9
2023-05-13T08:20:12.479Z,59.8
2023-05-13T08:21:28.735Z,57.9
2023-05-13T08:22:44.963Z,61.3
2023-05-13T08:24:01.206Z,58
2023-05-13T08:25:16.000Z,57.6
2023-05-13T08:26:32.695Z,58.2
2023-05-13T08:27:48.942Z,57.7
2023-05-13T08:29:05.172Z,60.7
2023-05-13T08:30:21.430Z,61
2023-05-13T08:31:37.655Z,58.5
2023-05-13T08:32:53.893Z,58.9
2023-05-13T08:34:10.146Z,57.6
2023-05-13T08:35:26.394Z,56.3
2023-05-13T08:36:42.632Z,60
2023-05-13T08:37:58.856Z,59.9
2023-05-13T08:39:15.109Z,60
2023-05-13T08:40:31.345Z,57.9
2023-05-13T08:41:46.595Z,58.5
2023-05-13T08:43:02.839Z,60.3
2023-05-13T08:44:19.000Z,60.7
2023-05-13T08:45:35.322Z,59.7
2023-05-13T08:46:51.553Z,59.4
2023-05-13T08:48:07.808Z,59.1
2023-05-13T08:49:24.027Z,59.2
2023-05-13T08:50:40.267Z,56.1
2023-05-13T08:51:56.527Z,58.4
2023-05-13T08:53:12.752Z,60.1
2023-05-13T08:54:28.990Z,57.3
2023-05-13T08:55:45.247Z,59.5
2023-05-13T08:57:01.473Z,57.4
2023-05-13T08:58:16.740Z,57.4
2023-05-13T08:59:32.970Z,57.4
2023-05-13T09:00:49.214Z,56.1
2023-05-13T09:02:05.456Z,57.5
2023-05-13T09:03:21.691Z,58.8
2023-05-13T09:04:37.949Z,56.6
2023-05-13T09:05:54.179Z,56.9
2023-05-13T09:07:10.428Z,57.9
2023-05-13T09:08:26.662Z,56.5
2023-05-13T09:09:42.901Z,55.5
2023-05-13T09:10:59.133Z,55.6
2023-05-13T09:12:15.378Z,55
2023-05-13T09:13:31.628Z,55.1
2023-05-13T09:14:46.878Z,56.4
2023-05-13T09:16:03.111Z,54.1
2023-05-13T09:17:19.348Z,55.4
2023-05-13T09:18:35.607Z,56
2023-05-13T09:19:51.833Z,55.6
2023-05-13T09:22:24.320Z,56.2
2023-05-13T09:23:40.569Z,54.5
2023-05-13T09:24:56.791Z,53.8
2023-05-13T09:26:13.047Z,54.5
2023-05-13T09:27:29.279Z,54.7
2023-05-13T09:28:45.526Z,57.3
2023-05-13T09:30:01.774Z,53.3
2023-05-13T09:31:17.016Z,54.6
2023-05-13T09:32:33.270Z,54.5
2023-05-13T09:33:49.517Z,54.6
2023-05-13T09:35:05.738Z,54.9
2023-05-13T09:36:21.982Z,56.5
2023-05-13T09:37:38.227Z,55.5
2023-05-13T09:38:54.470Z,54.1
2023-05-13T09:40:10.704Z,52.8
2023-05-13T09:41:26.939Z,54.7
2023-05-13T09:42:43.199Z,55.1
2023-05-13T09:43:59.424Z,55.6
2023-05-13T09:45:15.660Z,53.3
2023-05-13T09:46:31.910Z,56.9
2023-05-13T09:47:47.167Z,55.1
2023-05-13T09:49:03.402Z,54.3
2023-05-13T09:50:19.641Z,56
2023-05-13T09:51:35.882Z,56.8
2023-05-13T09:52:52.118Z,53.3
2023-05-13T09:54:08.369Z,53.1
2023-05-13T09:55:24.597Z,55.3
2023-05-13T09:56:40.843Z,55.7
2023-05-13T09:57:57.085Z,52
2023-05-13T09:59:13.343Z,52.4
2023-05-13T10:00:29.574Z,55.3
2023-05-13T10:01:45.829Z,53.7
2023-05-13T10:03:02.052Z,56
2023-05-13T10:04:17.323Z,53.4
2023-05-13T10:05:33.552Z,56
2023-05-13T10:06:49.791Z,52.8
2023-05-13T10:08:06.027Z,52.2
2023-05-13T10:09:22.280Z,54.2
2023-05-13T10:10:38.529Z,55.1
2023-05-13T10:11:54.757Z,56.6
2023-05-13T10:13:11.000Z,54.6
2023-05-13T10:14:27.239Z,52.1
2023-05-13T10:15:43.477Z,51.8
2023-05-13T10:16:59.718Z,52.8
2023-05-13T10:18:15.957Z,55.9
2023-05-13T10:19:32.211Z,56
2023-05-13T10:20:47.471Z,53.9
2023-05-13T10:22:03.699Z,55.2
2023-05-13T10:23:19.933Z,56.3
2023-05-13T10:24:36.182Z,53.1
2023-05-13T10:25:52.430Z,53.9
2023-05-13T10:27:08.668Z,50.4
2023-05-13T10:28:24.897Z,50.9
2023-05-13T10:29:41.135Z,51.4
2023-05-13T10:30:57.379Z,53.6
2023-05-13T10:32:13.630Z,50.6
2023-05-13T10:33:29.855Z,52.5
2023-05-13T10:34:46.107Z,50.3
2023-05-13T10:36:02.351Z,47.6
2023-05-13T10:37:17.598Z,45.3
2023-05-13T10:38:33.833Z,49.1
2023-05-13T10:39:50.092Z,47
2023-05-13T10:41:06.321Z,46.9
2023-05-13T10:42:22.554Z,48.5
2023-05-13T10:43:38.806Z,50.7
2023-05-13T10:44:55.052Z,51.4
2023-05-13T10:46:11.288Z,47.1
2023-05-13T10:47:27.527Z,48.8
2023-05-13T10:48:43.769Z,47.4
2023-05-13T10:50:00.012Z,47.9
2023-05-13T10:51:16.248Z,48.7
2023-05-13T10:52:32.476Z,47
2023-05-13T10:53:47.731Z,46.2
2023-05-13T10:55:03.973Z,49.2
2023-05-13T10:56:20.225Z,47.7
2023-05-13T10:57:36.468Z,49.6
2023-05-13T10:58:52.708Z,48.5
2023-05-13T11:00:08.941Z,49.2
2023-05-13T11:01:25.171Z,46.9
2023-05-13T11:02:41.424Z,48
2023-05-13T11:03:57.666Z,51.2
2023-05-13T11:05:13.913Z,48.6
2023-05-13T11:06:30.136Z,46.9
2023-05-13T11:07:46.386Z,47.5
2023-05-13T11:09:02.615Z,46.9
2023-05-13T11:10:17.876Z,47.5
2023-05-13T11:11:34.118Z,47.2
2023-05-13T11:12:50.349Z,50.6
2023-05-13T11:14:06.593Z,47
2023-05-13T11:15:22.842Z,47.8
2023-05-13T11:16:39.074Z,47.3
2023-05-13T11:17:54.335Z,49.2
2023-05-13T11:19:10.581Z,48.4
2023-05-13T11:20:26.826Z,48.5
2023-05-13T11:21:43.054Z,47.1
2023-05-13T11:22:59.305Z,47.5
2023-05-13T11:24:15.537Z,47.4
2023-05-13T11:25:31.771Z,48
2023-05-13T11:26:48.017Z,48.8
2023-05-13T11:28:04.253Z,51.2
2023-05-13T11:29:20.494Z,47.6
2023-05-13T11:30:36.751Z,47.4
2023-05-13T11:31:52.977Z,46.1
2023-05-13T11:33:09.223Z,49.6
2023-05-13T11:34:24.477Z,50.1
2023-05-13T11:35:40.726Z,48.4
2023-05-13T11:36:56.957Z,48.9
2023-05-13T11:38:13.200Z,49
2023-05-13T11:39:29.443Z,46
2023-05-13T11:40:45.682Z,49.1
2023-05-13T11:42:01.912Z,47.7
2023-05-13T11:43:18.164Z,49.2
2023-05-13T11:44:34.403Z,44.8
2023-05-13T11:45:50.647Z,51.2
2023-05-13T11:47:06.874Z,47.8
2023-05-13T11:48:23.133Z,47.1
2023-05-13T11:49:39.361Z,46
2023-05-13T11:50:54.616Z,47
2023-05-13T11:52:10.861Z,46.6
2023-05-13T11:53:27.096Z,47.1
2023-05-13T11:54:43.336Z,45.1
2023-05-13T11:55:59.572Z,43.8
2023-05-13T11:57:15.821Z,44.5
2023-05-13T11:58:32.058Z,44.4
2023-05-13T11:59:48.306Z,45.3
2023-05-13T12:01:04.550Z,45.9
2023-05-13T12:02:20.778Z,45.2
2023-05-13T12:03:37.014Z,49.3
2023-05-13T12:04:53.262Z,47.4
2023-05-13T12:06:09.500Z,47.8
2023-05-13T12:07:24.753Z,47.6
2023-05-13T12:08:41.005Z,48
2023-05-13T12:09:57.234Z,48.3
2023-05-13T12:11:13.478Z,45.9
2023-05-13T12:12:29.713Z,46.9
2023-05-13T12:13:45.966Z,48.4
2023-05-13T12:15:02.201Z,48
2023-05-13T12:16:18.432Z,44.2
2023-05-13T12:17:34.683Z,45.1
2023-05-13T12:18:50.915Z,44.8
2023-05-13T12:20:07.165Z,44
2023-05-13T12:21:23.404Z,45
2023-05-13T12:22:39.642Z,46.6
2023-05-13T12:23:54.900Z,45.1
2023-05-13T12:25:11.149Z,43.9
2023-05-13T12:26:27.381Z,46
2023-05-13T12:27:43.624Z,45.9
2023-05-13T12:28:59.868Z,46.6
2023-05-13T12:30:16.091Z,45.4
2023-05-13T12:31:32.331Z,47
2023-05-13T12:32:48.576Z,44.9
2023-05-13T12:34:04.821Z,43.9
2023-05-13T12:35:21.071Z,47.2
2023-05-13T12:36:37.309Z,48.4
2023-05-13T12:37:53.534Z,45.6
2023-05-13T12:39:09.783Z,46.2
2023-05-13T12:40:25.031Z,45.1
2023-05-13T12:41:41.277Z,44.5
2023-05-13T12:42:57.515Z,47.1
2023-05-13T12:44:13.759Z,46.4
2023-05-13T12:45:30.006Z,46.7
2023-05-13T12:46:46.247Z,45.7
2023-05-13T12:48:02.489Z,48.2
2023-05-13T12:49:18.729Z,48.2
2023-05-13T12:50:34.955Z,47.1
2023-05-13T12:51:51.200Z,48.8
2023-05-13T12:53:07.437Z,49.1
2023-05-13T12:54:23.690Z,49.9
2023-05-13T12:55:39.922Z,47.9
2023-05-13T12:56:55.175Z,48.1
2023-05-13T12:58:11.412Z,49.9
2023-05-13T12:59:27.659Z,48.8
2023-05-13T13:00:43.900Z,45.9
2023-05-13T13:02:00.133Z,47.5
2023-05-13T13:03:16.387Z,48.3
2023-05-13T13:04:32.628Z,47.9
2023-05-13T13:05:48.869Z,49
2023-05-13T13:07:05.105Z,49.1
2023-05-13T13:08:21.334Z,48.7
2023-05-13T13:09:37.575Z,47.9
2023-05-13T13:10:53.814Z,47.9
2023-05-13T13:12:10.055Z,47.4
2023-05-13T13:13:25.313Z,47.4
2023-05-13T13:14:41.571Z,49.2
2023-05-13T13:15:57.797Z,50.6
2023-05-13T13:17:14.037Z,47.8
2023-05-13T13:18:30.282Z,48.6
2023-05-13T13:19:46.000Z,49.6
2023-05-13T13:21:02.751Z,49.3
2023-05-13T13:22:19.010Z,50
2023-05-13T13:23:35.230Z,50.3
2023-05-13T13:24:51.474Z,48.2
2023-05-13T13:26:07.723Z,49.4
2023-05-13T13:27:23.965Z,48.2
2023-05-13T13:28:40.193Z,48.7
2023-05-13T13:29:55.451Z,50.1
2023-05-13T13:31:11.000Z,48.1
2023-05-13T13:32:27.947Z,49.9
2023-05-13T13:33:44.172Z,50.2
2023-05-13T13:35:00.412Z,49.9
2023-05-13T13:36:16.649Z,50.1
2023-05-13T13:37:32.902Z,49.6
2023-05-13T13:38:49.133Z,49.5
2023-05-13T13:40:05.380Z,51.1
2023-05-13T13:41:21.619Z,49.5
2023-05-13T13:42:37.867Z,51.1
2023-05-13T13:43:54.100Z,47.7
2023-05-13T13:45:10.346Z,48.5
2023-05-13T13:46:25.606Z,49.1
2023-05-13T13:47:41.829Z,46.6
2023-05-13T13:48:58.076Z,47.2
2023-05-13T13:50:14.311Z,46.8
2023-05-13T13:51:30.566Z,48.8
2023-05-13T13:52:46.788Z,49.3
2023-05-13T13:54:03.035Z,49.1
2023-05-13T13:55:19.284Z,50.2
2023-05-13T13:56:35.524Z,50.5
2023-05-13T13:57:51.766Z,50.1
2023-05-13T13:59:08.003Z,49.5
2023-05-13T14:00:24.229Z,48.3
2023-05-13T14:01:40.477Z,49.5
2023-05-13T14:02:55.733Z,50.8
2023-05-13T14:04:11.986Z,48.2
2023-05-13T14:05:28.224Z,48.5
2023-05-13T14:06:44.451Z,49.7
2023-05-13T14:08:00.692Z,50.6
2023-05-13T14:09:16.931Z,48.2
2023-05-13T14:10:33.166Z,49.7
2023-05-13T14:11:49.416Z,50.5
2023-05-13T14:13:05.646Z,49.2
2023-05-13T14:14:21.895Z,50
2023-05-13T14:15:38.128Z,49.4
2023-05-13T14:16:54.371Z,50.5
2023-05-13T14:18:10.625Z,51.2
2023-05-13T14:19:26.850Z,51.3
2023-05-13T14:20:42.117Z,51.5
2023-05-13T14:21:58.348Z,52
2023-05-13T14:23:14.591Z,52.5
2023-05-13T14:24:30.839Z,52.8
2023-05-13T14:25:47.083Z,52.9
2023-05-13T14:27:03.312Z,54.1
2023-05-13T14:28:19.548Z,54.2
2023-05-13T14:29:35.786Z,53.7
2023-05-13T14:30:52.042Z,53.4
2023-05-13T14:32:08.270Z,55.2
2023-05-13T14:33:24.518Z,55.3
2023-05-13T14:34:40.759Z,57
2023-05-13T14:35:56.991Z,55.5
2023-05-13T14:37:12.258Z,54.9
2023-05-13T14:38:28.487Z,56.6
2023-05-13T14:39:44.729Z,54.3
2023-05-13T14:41:00.982Z,54.3
2023-05-13T14:42:17.204Z,55.6
2023-05-13T14:43:33.463Z,56.3
2023-05-13T14:44:49.685Z,55.4
2023-05-13T14:46:05.923Z,54.1
2023-05-13T14:47:22.177Z,54.4
2023-05-13T14:48:38.412Z,55.3
2023-05-13T14:49:54.647Z,54.4
2023-05-13T14:51:10.886Z,54.5
2023-05-13T14:52:27.140Z,55.4
2023-05-13T14:53:42.391Z,55.8
2023-05-13T14:54:58.626Z,54.7
2023-05-13T14:56:14.865Z,56.7
2023-05-13T14:57:31.102Z,55.9
2023-05-13T14:58:47.352Z,54.8
2023-05-13T15:00:03.599Z,54.5
2023-05-13T15:01:19.831Z,56.5
2023-05-13T15:02:36.077Z,56.3
2023-05-13T15:03:52.318Z,54.8
2023-05-13T15:05:08.543Z,54.9
2023-05-13T15:06:24.801Z,55
2023-05-13T15:07:41.040Z,55.9
2023-05-13T15:08:57.268Z,54.9
2023-05-13T15:10:12.528Z,55.2
2023-05-13T15:11:28.773Z,55.9
2023-05-13T15:12:45.003Z,56.5
2023-05-13T15:14:01.252Z,57
2023-05-13T15:15:17.497Z,56.7
2023-05-13T15:16:33.731Z,55.9
2023-05-13T15:17:49.971Z,55.9
2023-05-13T15:19:06.209Z,57
2023-05-13T15:20:22.452Z,56.6
2023-05-13T15:21:38.700Z,56.7
2023-05-13T15:22:54.938Z,56
2023-05-13T15:24:11.166Z,56.4
2023-05-13T15:25:27.402Z,56.5
2023-05-13T15:26:42.670Z,56.6
2023-05-13T15:27:58.901Z,56.4
2023-05-13T15:29:15.148Z,55.9
2023-05-13T15:30:31.390Z,55.4
2023-05-13T15:31:47.635Z,54.9
2023-05-13T15:33:02.891Z,55.9
2023-05-13T15:34:19.136Z,56.5
2023-05-13T15:35:35.380Z,55.3
2023-05-13T15:36:51.601Z,55
2023-05-13T15:38:07.845Z,54.9
2023-05-13T15:39:24.096Z,55.1
2023-05-13T15:40:40.325Z,53.5
2023-05-13T15:41:56.571Z,54
2023-05-13T15:43:12.821Z,53.3
2023-05-13T15:44:29.053Z,53.8
2023-05-13T15:45:45.286Z,54.3
2023-05-13T15:47:01.527Z,54.1
2023-05-13T15:48:17.772Z,53.7
2023-05-13T15:49:33.036Z,53.9
2023-05-13T15:50:49.270Z,54.5
2023-05-13T15:52:05.516Z,55
2023-05-13T15:53:21.746Z,56.5
2023-05-13T15:54:37.985Z,55.4
2023-05-13T15:55:54.232Z,56
2023-05-13T15:57:10.464Z,57
2023-05-13T15:58:26.707Z,55.2
2023-05-13T15:59:42.942Z,56
2023-05-13T16:00:59.194Z,56.2
2023-05-13T16:02:15.423Z,55.2
2023-05-13T16:03:31.676Z,56.1
2023-05-13T16:04:47.906Z,55.9
2023-05-13T16:06:03.168Z,55.7
2023-05-13T16:07:19.400Z,55.4
2023-05-13T16:08:35.638Z,56.1
2023-05-13T16:09:51.884Z,55.9
2023-05-13T16:11:08.131Z,56.5
2023-05-13T16:12:24.362Z,57
2023-05-13T16:13:40.598Z,55.9
2023-05-13T16:14:56.841Z,56.2
2023-05-13T16:16:13.096Z,56
2023-05-13T16:17:29.330Z,56.6
2023-05-13T16:18:45.570Z,57.3
2023-05-13T16:20:01.803Z,58
2023-05-13T16:21:18.049Z,55.7
2023-05-13T16:22:33.310Z,57
2023-05-13T16:23:49.542Z,55.8
2023-05-13T16:25:05.792Z,56.6
2023-05-13T16:26:22.030Z,56.3
2023-05-13T16:27:38.272Z,56.9
2023-05-13T16:28:54.505Z,56.9
2023-05-13T16:30:10.752Z,57
2023-05-13T16:31:26.991Z,57.7
2023-05-13T16:32:43.220Z,57.1
2023-05-13T16:33:59.475Z,58
2023-05-13T16:35:15.717Z,60
2023-05-13T16:36:31.941Z,59.4
2023-05-13T16:37:48.189Z,58.5
2023-05-13T16:39:03.435Z,60
2023-05-13T16:40:19.687Z,57.9
2023-05-13T16:41:35.916Z,57.4
2023-05-13T16:42:52.176Z,58.2
2023-05-13T16:44:08.404Z,59.2
2023-05-13T16:45:24.644Z,58.6
2023-05-13T16:46:40.875Z,60.1
2023-05-13T16:47:57.130Z,58.7
2023-05-13T16:49:13.364Z,59.3
2023-05-13T16:50:29.604Z,59.6
2023-05-13T16:51:45.835Z,59.9
2023-05-13T16:53:02.088Z,59.8
2023-05-13T16:54:18.333Z,59
2023-05-13T16:55:33.576Z,58.5
2023-05-13T16:56:49.827Z,58.6
2023-05-13T16:58:06.059Z,59
2023-05-13T16:59:22.297Z,58.3
2023-05-13T17:00:38.550Z,58.4
2023-05-13T17:01:54.786Z,58.7
2023-05-13T17:03:11.028Z,59
2023-05-13T17:04:27.256Z,58.4
2023-05-13T17:05:43.503Z,59.7